Time;durP1;ratioP1;P1;durP2;ratioP2;P2;SDS_P1;SDS_P2;PMS_P1;PMS_P2;Temp;Humidity;BMP_temperature;BMP_pressure;BME280_temperature;BME280_humidity;BME280_pressure;Samples;Min_cycle;Max_cycle;Signal;HPM_P1;HPM_P2
2023/01/08 00:01:09;;;;;;;18.57;10.53;;;;;;;0.90;94.62;95950.06;1795541;80;21608;-69
2023/01/08 00:03:38;;;;;;;20.73;12.37;;;;;;;0.93;94.44;95954.02;1795627;80;21011;-69
2023/01/08 00:06:10;;;;;;;12.77;8.17;;;;;;;0.93;94.44;95954.02;1795480;80;21349;-69
2023/01/08 00:08:36;;;;;;;17.80;10.33;;;;;;;0.88;93.91;95951.30;1795500;80;21018;-69
2023/01/08 00:11:03;;;;;;;14.37;9.10;;;;;;;0.83;93.54;95951.22;1795451;80;20971;-69
2023/01/08 00:13:30;;;;;;;13.80;8.83;;;;;;;0.73;93.16;95949.23;1795365;80;21654;-69
2023/01/08 00:15:56;;;;;;;12.93;7.50;;;;;;;0.68;93.35;95946.95;1795489;80;21034;-69
2023/01/08 00:18:25;;;;;;;13.37;7.50;;;;;;;0.64;93.17;95949.00;1764186;80;21094;-69
2023/01/08 00:20:51;;;;;;;13.63;8.97;;;;;;;0.63;93.90;95951.12;1795752;80;21017;-70
2023/01/08 00:23:19;;;;;;;16.60;8.63;;;;;;;0.58;93.91;95963.11;1795474;80;21488;-70
2023/01/08 00:25:46;;;;;;;12.67;8.43;;;;;;;0.58;94.12;95952.72;1795452;80;21066;-69
2023/01/08 00:28:13;;;;;;;13.53;8.27;;;;;;;0.62;94.20;95957.16;1795552;80;21010;-69
2023/01/08 00:30:41;;;;;;;10.70;6.80;;;;;;;0.62;93.92;95953.27;1788082;80;21019;-69
2023/01/08 00:33:09;;;;;;;13.40;7.67;;;;;;;0.63;93.89;95949.81;1787113;80;21107;-69
2023/01/08 00:35:40;;;;;;;12.00;7.47;;;;;;;0.66;94.05;95952.95;1787289;80;21018;-69
2023/01/08 00:38:07;;;;;;;10.13;6.20;;;;;;;0.61;93.92;95942.44;1786913;80;21050;-69
2023/01/08 00:40:35;;;;;;;6.43;4.23;;;;;;;0.66;94.12;95949.05;1787250;80;21500;-69
2023/01/08 00:43:02;;;;;;;6.70;4.67;;;;;;;0.70;94.24;95942.64;1787072;80;20991;-69
2023/01/08 00:45:29;;;;;;;8.20;4.80;;;;;;;0.68;93.80;95949.94;1787001;80;21006;-69
2023/01/08 00:47:56;;;;;;;9.10;5.57;;;;;;;0.67;93.90;95943.00;1754702;80;20963;-69
2023/01/08 00:50:23;;;;;;;7.63;4.37;;;;;;;0.64;94.05;95949.00;1787128;80;21045;-69
2023/01/08 00:52:49;;;;;;;7.90;5.43;;;;;;;0.61;93.82;95940.71;1786953;80;21321;-69
2023/01/08 00:55:16;;;;;;;9.27;6.10;;;;;;;0.58;94.22;95956.61;1754526;80;21529;-69
2023/01/08 00:57:43;;;;;;;12.50;7.03;;;;;;;0.52;94.82;95944.36;1786979;80;20972;-69
2023/01/08 01:00:14;;;;;;;14.37;8.80;;;;;;;0.49;94.91;95953.37;1786924;80;21073;-69
2023/01/08 01:02:41;;;;;;;11.40;6.50;;;;;;;0.46;94.71;95955.03;1787095;80;21050;-69
2023/01/08 01:05:09;;;;;;;10.57;6.77;;;;;;;0.41;94.56;95946.69;1787175;80;21054;-69
2023/01/08 01:07:36;;;;;;;8.87;5.40;;;;;;;0.38;94.81;95954.41;1786958;80;21010;-69
2023/01/08 01:10:04;;;;;;;7.07;4.87;;;;;;;0.35;94.30;95956.92;1787069;80;21002;-69
2023/01/08 01:12:30;;;;;;;7.13;4.40;;;;;;;0.28;94.56;95955.39;1787007;80;21110;-69
2023/01/08 01:14:57;;;;;;;7.43;4.93;;;;;;;0.27;94.38;95956.25;1787077;80;21002;-69
2023/01/08 01:17:24;;;;;;;6.10;3.57;;;;;;;0.24;94.90;95954.45;1787293;80;21000;-69
2023/01/08 01:19:51;;;;;;;9.57;5.60;;;;;;;0.21;95.25;95956.97;1787008;80;20975;-69
2023/01/08 01:22:18;;;;;;;8.43;5.17;;;;;;;0.24;95.01;95958.77;1787164;80;21086;-69
2023/01/08 01:24:44;;;;;;;7.67;4.43;;;;;;;0.27;95.47;95958.41;1787173;80;21437;-69
2023/01/08 01:27:11;;;;;;;9.10;5.50;;;;;;;0.25;95.80;95953.59;1787032;80;21030;-69
2023/01/08 01:29:37;;;;;;;7.37;4.77;;;;;;;0.30;95.74;95949.41;1789539;80;21015;-69
2023/01/08 01:32:05;;;;;;;8.90;4.90;;;;;;;0.31;96.08;95955.50;1795415;80;21022;-69
2023/01/08 01:34:31;;;;;;;9.10;5.20;;;;;;;0.31;96.22;95947.29;1795322;80;21006;-69
2023/01/08 01:36:58;;;;;;;8.30;5.03;;;;;;;0.30;96.57;95946.81;1795505;80;21026;-69
2023/01/08 01:39:25;;;;;;;9.90;5.03;;;;;;;0.26;97.40;95948.02;1795414;80;21006;-69
2023/01/08 01:41:52;;;;;;;9.43;5.33;;;;;;;0.29;97.31;95942.90;1795313;80;21062;-69
2023/01/08 01:44:42;;;;;;;10.23;5.67;;;;;;;0.32;97.12;95941.67;1795408;80;21066;-69
2023/01/08 01:47:29;;;;;;;8.73;5.60;;;;;;;0.35;97.35;95940.45;1795427;80;21018;-69
2023/01/08 01:50:15;;;;;;;10.90;6.23;;;;;;;0.35;97.25;95940.45;1795699;80;21536;-69
2023/01/08 01:52:47;;;;;;;8.13;5.23;;;;;;;0.38;97.28;95933.64;1795445;80;20989;-69
2023/01/08 01:55:15;;;;;;;10.20;6.33;;;;;;;0.42;97.07;95938.48;1794761;80;21090;-69
2023/01/08 01:57:47;;;;;;;9.47;5.77;;;;;;;0.49;97.35;95935.62;1795421;80;21457;-69
2023/01/08 02:00:15;;;;;;;7.57;5.20;;;;;;;0.53;97.09;95936.14;1795461;80;21006;-69
2023/01/08 02:02:42;;;;;;;8.10;4.83;;;;;;;0.58;96.95;95922.47;1795210;80;21090;-69
2023/01/08 02:05:09;;;;;;;11.03;5.87;;;;;;;0.61;96.69;95921.66;1795497;80;21505;-69
2023/01/08 02:07:50;;;;;;;8.17;5.53;;;;;;;0.60;96.78;95923.36;1795482;80;21046;-69
2023/01/08 02:10:31;;;;;;;9.57;5.43;;;;;;;0.63;96.73;95919.56;1795119;80;21049;-69
2023/01/08 02:13:06;;;;;;;10.50;5.53;;;;;;;0.67;96.70;95920.50;1795553;80;21022;-69
2023/01/08 02:15:50;;;;;;;9.67;6.10;;;;;;;0.68;96.85;95920.08;1794666;80;21065;-70
2023/01/08 02:18:34;;;;;;;10.40;5.90;;;;;;;0.63;97.14;95912.16;1795451;80;21480;-69
2023/01/08 02:21:06;;;;;;;10.23;6.40;;;;;;;0.67;96.97;95914.02;1795565;80;21053;-69
2023/01/08 02:23:50;;;;;;;12.40;7.03;;;;;;;0.72;97.17;95905.91;1793941;80;21010;-69
2023/01/08 02:26:30;;;;;;;12.63;6.58;;;;;;;0.75;97.03;95911.59;1795607;80;21023;-69
2023/01/08 02:29:10;;;;;;;13.57;7.03;;;;;;;0.79;97.17;95910.84;1795173;80;21135;-69
2023/01/08 02:31:41;;;;;;;10.93;6.27;;;;;;;0.77;96.98;95903.42;1795362;80;21010;-69
2023/01/08 02:34:09;;;;;;;14.20;7.30;;;;;;;0.82;97.07;95909.18;1795375;80;21034;-69
2023/01/08 02:36:44;;;;;;;11.43;6.07;;;;;;;0.86;96.82;95902.36;1795235;80;21507;-69
2023/01/08 02:39:37;;;;;;;11.03;5.87;;;;;;;0.81;96.56;95897.48;1764532;80;21003;-69
2023/01/08 02:42:12;;;;;;;11.50;6.65;;;;;;;0.82;96.37;95899.22;1795567;80;20979;-69
2023/01/08 02:44:53;;;;;;;10.10;5.50;;;;;;;0.84;96.43;95901.44;1795216;80;20991;-69
2023/01/08 02:47:40;;;;;;;8.90;5.47;;;;;;;0.88;96.40;95892.86;1795431;80;21081;-69
2023/01/08 02:50:26;;;;;;;8.77;5.47;;;;;;;0.89;96.28;95888.56;1795510;80;21117;-69
2023/01/08 02:53:14;;;;;;;11.00;6.13;;;;;;;0.88;96.08;95889.39;1795506;80;21058;-69
2023/01/08 02:55:45;;;;;;;7.63;4.60;;;;;;;0.82;96.03;95896.62;1795579;80;21481;-69
2023/01/08 02:58:13;;;;;;;18.80;9.37;;;;;;;0.82;96.19;95891.00;1795334;80;21528;-69
2023/01/08 03:00:43;;;;;;;18.63;9.27;;;;;;;0.75;96.06;95892.12;1795186;80;21002;-69
2023/01/08 03:03:26;;;;;;;12.00;7.17;;;;;;;0.58;95.50;95887.41;1795342;80;21025;-69
2023/01/08 03:06:07;;;;;;;12.30;7.70;;;;;;;0.47;95.23;95885.38;1795382;80;20993;-69
2023/01/08 03:08:39;;;;;;;7.47;4.90;;;;;;;0.36;95.30;95879.93;1795390;80;21015;-69
2023/01/08 03:11:19;;;;;;;8.07;5.53;;;;;;;0.36;95.53;95872.14;1794135;80;21484;-69
2023/01/08 03:14:11;;;;;;;24.17;9.93;;;;;;;0.17;94.92;95877.27;1795291;80;21048;-69
2023/01/08 03:16:56;;;;;;;13.27;6.47;;;;;;;0.02;95.10;95871.69;1795379;80;21489;-69
2023/01/08 03:19:35;;;;;;;6.90;3.90;;;;;;;0.04;95.19;95875.20;1793307;80;21049;-69
2023/01/08 03:22:06;;;;;;;34.50;13.43;;;;;;;0.05;95.47;95875.26;1794366;80;21476;-69
2023/01/08 03:24:35;;;;;;;19.40;9.20;;;;;;;0.11;95.76;95873.23;1795367;80;21045;-69
2023/01/08 03:27:05;;;;;;;27.23;11.63;;;;;;;0.15;95.63;95869.47;1764250;80;21049;-69
2023/01/08 03:29:33;;;;;;;35.00;14.40;;;;;;;0.16;95.61;95863.42;1794919;80;20983;-70
2023/01/08 03:32:04;;;;;;;29.13;12.70;;;;;;;0.08;95.16;95870.56;1787031;80;20999;-69
2023/01/08 03:34:34;;;;;;;13.57;7.50;;;;;;;0.05;95.31;95867.47;1786871;80;21007;-69
2023/01/08 03:37:03;;;;;;;8.10;4.33;;;;;;;0.10;95.67;95871.45;1787099;80;21002;-69
2023/01/08 03:39:39;;;;;;;8.40;4.40;;;;;;;0.16;95.96;95858.66;1787163;80;20998;-69
2023/01/08 03:42:09;;;;;;;5.70;4.20;;;;;;;0.18;95.71;95857.86;1787267;80;21556;-69
2023/01/08 03:44:36;;;;;;;6.97;3.70;;;;;;;0.22;95.63;95860.09;1787152;80;21018;-70
2023/01/08 03:47:03;;;;;;;4.47;3.00;;;;;;;0.24;95.48;95867.94;1787080;80;20994;-69
2023/01/08 03:49:30;;;;;;;5.10;3.00;;;;;;;0.26;95.46;95859.34;1787245;80;21053;-69
2023/01/08 03:51:57;;;;;;;4.43;2.97;;;;;;;0.24;95.05;95864.92;1787254;80;21015;-69
2023/01/08 03:54:30;;;;;;;4.23;3.00;;;;;;;0.22;94.53;95874.38;1787054;80;20965;-69
2023/01/08 03:56:57;;;;;;;13.28;6.05;;;;;;;0.15;94.06;95865.97;1787333;80;21038;-69
2023/01/08 03:59:23;;;;;;;16.13;8.10;;;;;;;0.15;94.25;95870.77;1787251;80;20983;-69
2023/01/08 04:01:50;;;;;;;20.90;9.73;;;;;;;0.14;94.39;95866.39;1786943;80;21035;-69
2023/01/08 04:04:17;;;;;;;19.43;10.17;;;;;;;0.13;95.20;95875.45;1787125;80;21484;-69
2023/01/08 04:06:44;;;;;;;13.53;6.50;;;;;;;0.18;95.47;95872.13;1787203;80;21018;-69
2023/01/08 04:09:11;;;;;;;16.27;8.53;;;;;;;0.11;95.55;95871.51;1787051;80;21038;-69
2023/01/08 04:11:37;;;;;;;16.13;8.50;;;;;;;0.08;95.52;95875.75;1787218;80;21544;-69
2023/01/08 04:14:04;;;;;;;22.00;10.23;;;;;;;-0.02;96.39;95877.23;1787139;80;21489;-69
2023/01/08 04:16:30;;;;;;;22.00;10.73;;;;;;;-0.03;96.07;95878.05;1754316;80;20986;-69
2023/01/08 04:18:57;;;;;;;14.70;7.63;;;;;;;-0.11;96.58;95877.84;1787224;80;21003;-69
2023/01/08 04:21:24;;;;;;;9.57;6.03;;;;;;;-0.14;97.08;95875.17;1787235;80;20975;-69
2023/01/08 04:23:50;;;;;;;9.73;5.10;;;;;;;-0.13;97.03;95881.23;1787042;80;21018;-69
2023/01/08 04:26:17;;;;;;;10.73;6.23;;;;;;;-0.11;97.06;95876.55;1787208;80;21457;-70
2023/01/08 04:28:43;;;;;;;9.93;5.67;;;;;;;-0.10;97.11;95870.53;1787347;80;21472;-70
2023/01/08 04:31:10;;;;;;;11.20;6.83;;;;;;;-0.13;97.45;95878.21;1792021;80;21109;-70
2023/01/08 04:33:37;;;;;;;7.97;4.67;;;;;;;-0.09;97.22;95875.30;1795454;80;21037;-69
2023/01/08 04:36:05;;;;;;;10.13;6.07;;;;;;;-0.08;96.99;95877.05;1795573;80;21042;-70
2023/01/08 04:38:31;;;;;;;10.10;6.07;;;;;;;-0.08;97.04;95872.73;1795469;80;21020;-70
2023/01/08 04:41:00;;;;;;;11.07;6.30;;;;;;;-0.07;96.96;95878.39;1764794;80;20979;-69
2023/01/08 04:43:29;;;;;;;10.00;6.37;;;;;;;-0.08;97.03;95874.02;1795372;80;21030;-70
2023/01/08 04:46:02;;;;;;;9.73;6.10;;;;;;;-0.11;97.28;95881.73;1795313;80;21014;-69
2023/01/08 04:48:30;;;;;;;5.90;4.08;;;;;;;-0.10;97.33;95876.12;1795330;80;21053;-69
2023/01/08 04:51:01;;;;;;;8.60;5.20;;;;;;;-0.15;97.48;95877.31;1795402;80;21457;-70
2023/01/08 04:53:29;;;;;;;16.20;9.47;;;;;;;-0.14;97.16;95875.17;1795565;80;21019;-70
2023/01/08 04:55:56;;;;;;;11.80;6.80;;;;;;;-0.21;97.88;95866.76;1795569;80;21483;-70
2023/01/08 04:58:22;;;;;;;12.87;7.63;;;;;;;-0.19;98.12;95865.09;1764401;80;21014;-70
2023/01/08 05:00:48;;;;;;;7.47;4.83;;;;;;;-0.17;98.12;95860.83;1795448;80;21405;-70
2023/01/08 05:03:15;;;;;;;8.23;5.10;;;;;;;-0.17;97.80;95863.84;1795537;80;21018;-70
2023/01/08 05:05:42;;;;;;;7.63;4.73;;;;;;;-0.15;97.60;95856.96;1795524;80;20990;-70
2023/01/08 05:08:08;;;;;;;11.33;7.57;;;;;;;-0.15;97.62;95858.26;1795537;80;21019;-70
2023/01/08 05:10:35;;;;;;;7.23;4.70;;;;;;;-0.13;97.63;95854.00;1795519;80;20971;-70
2023/01/08 05:13:01;;;;;;;9.67;6.07;;;;;;;-0.10;97.52;95854.97;1795343;80;21484;-70
2023/01/08 05:15:28;;;;;;;11.10;6.23;;;;;;;-0.14;97.25;95849.23;1764439;80;21570;-70
2023/01/08 05:18:00;;;;;;;16.27;9.03;;;;;;;-0.16;97.27;95856.09;1795379;80;21013;-71
2023/01/08 05:20:27;;;;;;;9.73;6.73;;;;;;;-0.20;97.14;95855.57;1795442;80;20979;-70
2023/01/08 05:22:53;;;;;;;8.00;4.60;;;;;;;-0.28;96.79;95855.76;1795425;80;20990;-70
2023/01/08 05:25:20;;;;;;;9.60;5.67;;;;;;;-0.26;96.70;95854.09;1795125;80;21111;-70
2023/01/08 05:27:47;;;;;;;6.00;3.73;;;;;;;-0.23;96.71;95852.48;1795586;80;21006;-70
2023/01/08 05:30:14;;;;;;;5.33;3.33;;;;;;;-0.17;96.82;95859.53;1794539;80;21062;-70
2023/01/08 05:32:41;;;;;;;3.80;2.63;;;;;;;-0.14;96.58;95863.92;1787008;80;21050;-70
2023/01/08 05:35:09;;;;;;;6.20;3.30;;;;;;;-0.22;95.90;95862.00;1787175;80;21038;-70
2023/01/08 05:37:36;;;;;;;6.37;4.17;;;;;;;-0.18;96.15;95862.08;1787071;80;21075;-70
2023/01/08 05:40:04;;;;;;;4.93;3.20;;;;;;;-0.20;95.97;95855.57;1787088;80;21504;-70
2023/01/08 05:42:34;;;;;;;3.83;2.07;;;;;;;-0.17;96.16;95856.94;1787218;80;21512;-70
2023/01/08 05:45:04;;;;;;;3.77;2.63;;;;;;;-0.15;96.04;95859.55;1787068;80;21026;-71
2023/01/08 05:47:32;;;;;;;3.83;2.70;;;;;;;-0.16;95.84;95861.70;1786197;80;21038;-71
2023/01/08 05:49:59;;;;;;;4.33;2.83;;;;;;;-0.27;95.07;95861.00;1787088;80;21082;-70
2023/01/08 05:52:26;;;;;;;5.03;3.17;;;;;;;-0.29;95.28;95865.25;1787050;80;21013;-71
2023/01/08 05:54:53;;;;;;;4.23;3.10;;;;;;;-0.24;95.71;95863.67;1787017;80;21050;-71
2023/01/08 05:57:20;;;;;;;6.27;3.37;;;;;;;-0.21;95.91;95857.69;1787052;80;21335;-70
2023/01/08 05:59:46;;;;;;;4.97;3.23;;;;;;;-0.16;95.96;95870.36;1787049;80;20995;-70
2023/01/08 06:02:13;;;;;;;6.17;3.30;;;;;;;-0.17;95.62;95862.13;1786921;80;21034;-70
2023/01/08 06:04:39;;;;;;;4.33;3.13;;;;;;;-0.13;95.88;95867.84;1787188;80;21409;-70
2023/01/08 06:07:06;;;;;;;5.23;3.17;;;;;;;-0.13;95.64;95866.97;1787085;80;21054;-70
2023/01/08 06:09:32;;;;;;;3.50;2.63;;;;;;;-0.12;95.67;95870.91;1787201;80;21456;-70
2023/01/08 06:11:59;;;;;;;5.97;3.83;;;;;;;-0.13;95.29;95877.34;1787149;80;20971;-70
2023/01/08 06:14:25;;;;;;;9.63;4.17;;;;;;;-0.15;95.43;95873.42;1787025;80;21063;-70
2023/01/08 06:16:52;;;;;;;25.73;11.80;;;;;;;-0.16;95.16;95878.13;1787034;80;21011;-70
2023/01/08 06:19:18;;;;;;;24.03;12.97;;;;;;;-0.20;95.01;95871.13;1787056;80;20987;-70
2023/01/08 06:21:45;;;;;;;15.70;7.40;;;;;;;-0.28;95.05;95865.73;1787024;80;21034;-70
2023/01/08 06:24:12;;;;;;;10.83;6.17;;;;;;;-0.31;94.94;95872.53;1786776;80;20999;-70
2023/01/08 06:26:39;;;;;;;12.93;7.87;;;;;;;-0.33;94.89;95871.22;1754704;80;21030;-69
2023/01/08 06:29:07;;;;;;;26.47;13.27;;;;;;;-0.32;95.05;95872.09;1786976;80;21003;-70
2023/01/08 06:31:33;;;;;;;17.53;9.23;;;;;;;-0.37;94.86;95878.44;1791212;80;21054;-70
2023/01/08 06:34:00;;;;;;;17.97;9.83;;;;;;;-0.44;94.68;95873.48;1795491;80;21026;-70
2023/01/08 06:36:27;;;;;;;23.53;13.47;;;;;;;-0.46;94.76;95872.98;1795519;80;21475;-70
2023/01/08 06:38:54;;;;;;;39.40;19.97;;;;;;;-0.54;94.76;95878.37;1795351;80;21010;-70
2023/01/08 06:41:21;;;;;;;26.63;14.57;;;;;;;-0.59;94.96;95885.14;1795442;80;21552;-70
2023/01/08 06:43:47;;;;;;;30.03;15.77;;;;;;;-0.58;95.27;95877.42;1795359;80;21026;-70
2023/01/08 06:46:15;;;;;;;31.20;16.47;;;;;;;-0.55;95.20;95880.52;1795242;80;21040;-70
2023/01/08 06:48:42;;;;;;;18.87;11.47;;;;;;;-0.57;95.10;95885.64;1795347;80;21476;-69
2023/01/08 06:51:08;;;;;;;11.10;7.73;;;;;;;-0.60;95.27;95891.17;1764376;80;21524;-70
2023/01/08 06:53:35;;;;;;;8.10;4.33;;;;;;;-0.60;95.13;95888.58;1764376;80;21010;-70
2023/01/08 06:56:03;;;;;;;8.73;5.13;;;;;;;-0.67;95.21;95884.50;1795365;80;21005;-69
2023/01/08 06:58:30;;;;;;;5.63;3.63;;;;;;;-0.59;95.36;95884.72;1795583;80;20963;-70
2023/01/08 07:00:57;;;;;;;7.80;4.67;;;;;;;-0.52;95.42;95886.66;1795274;80;20998;-70
2023/01/08 07:03:24;;;;;;;12.27;6.90;;;;;;;-0.42;95.52;95879.15;1795371;80;20999;-70
2023/01/08 07:05:51;;;;;;;16.40;10.53;;;;;;;-0.38;95.18;95892.64;1795381;80;21058;-70
2023/01/08 07:08:18;;;;;;;22.93;11.77;;;;;;;-0.35;95.18;95885.84;1795445;80;20995;-70
2023/01/08 07:10:45;;;;;;;46.97;21.70;;;;;;;-0.31;95.18;95884.20;1795387;80;21499;-70
2023/01/08 07:13:11;;;;;;;32.17;15.33;;;;;;;-0.34;94.71;95895.79;1764451;80;21019;-70
2023/01/08 07:15:40;;;;;;;24.13;13.23;;;;;;;-0.36;94.46;95890.55;1795758;80;21456;-70
2023/01/08 07:18:09;;;;;;;19.13;11.63;;;;;;;-0.34;94.44;95890.60;1795357;80;21003;-70
2023/01/08 07:20:36;;;;;;;13.50;7.93;;;;;;;-0.35;94.40;95891.03;1795669;80;21030;-70
2023/01/08 07:23:07;;;;;;;9.87;6.20;;;;;;;-0.26;95.00;95896.45;1795248;80;21074;-70
2023/01/08 07:25:33;;;;;;;12.93;7.30;;;;;;;-0.20;94.72;95898.75;1795230;80;21002;-69
2023/01/08 07:28:00;;;;;;;10.40;6.20;;;;;;;-0.12;95.16;95903.33;1795606;80;20998;-70
2023/01/08 07:30:28;;;;;;;11.23;6.53;;;;;;;-0.01;95.41;95900.59;1795650;80;20982;-70
2023/01/08 07:33:00;;;;;;;12.83;7.63;;;;;;;0.02;94.62;95906.28;1786929;80;21018;-70
2023/01/08 07:35:28;;;;;;;10.70;6.83;;;;;;;0.04;94.47;95905.91;1787474;80;20959;-70
2023/01/08 07:37:55;;;;;;;18.07;9.33;;;;;;;0.07;94.14;95903.81;1787259;80;21493;-70
2023/01/08 07:40:22;;;;;;;8.20;6.30;;;;;;;0.13;94.43;95908.76;1787070;80;21095;-71
2023/01/08 07:42:58;;;;;;;8.87;5.73;;;;;;;0.24;94.70;95907.73;1786888;80;21094;-71
2023/01/08 07:45:26;;;;;;;11.20;6.50;;;;;;;0.35;94.54;95901.52;1787268;80;20987;-71
2023/01/08 07:47:53;;;;;;;91.67;53.07;;;;;;;0.43;94.32;95904.78;1787087;80;21058;-70
2023/01/08 07:50:19;;;;;;;57.63;35.07;;;;;;;0.48;93.75;95902.70;1754793;80;21037;-70
2023/01/08 07:52:46;;;;;;;35.70;17.37;;;;;;;0.48;92.92;95900.11;1787163;80;21030;-71
2023/01/08 07:55:12;;;;;;;22.30;14.33;;;;;;;0.55;93.15;95903.31;1787272;80;20999;-71
2023/01/08 07:57:39;;;;;;;13.37;9.10;;;;;;;0.51;92.49;95893.72;1754544;80;21485;-71
2023/01/08 08:00:08;;;;;;;11.33;6.43;;;;;;;0.42;91.62;95903.43;1787105;80;20995;-70
2023/01/08 08:02:34;;;;;;;11.40;7.67;;;;;;;0.38;92.10;95900.32;1787010;80;21095;-70
2023/01/08 08:05:01;;;;;;;11.13;7.13;;;;;;;0.35;92.47;95893.34;1787280;80;21014;-70
2023/01/08 08:07:30;;;;;;;19.23;12.47;;;;;;;0.46;93.36;95901.38;1787169;80;21046;-70
2023/01/08 08:09:57;;;;;;;13.03;7.57;;;;;;;0.54;93.14;95908.06;1787207;80;21026;-70
2023/01/08 08:12:23;;;;;;;102.10;55.03;;;;;;;0.58;93.00;95893.00;1787233;80;21481;-71
2023/01/08 08:14:50;;;;;;;24.57;13.50;;;;;;;0.64;93.22;95904.85;1787156;80;21335;-70
2023/01/08 08:17:17;;;;;;;19.63;11.93;;;;;;;0.67;93.32;95904.05;1787048;80;20991;-70
2023/01/08 08:19:44;;;;;;;34.20;21.53;;;;;;;0.71;93.27;95900.27;1787257;80;20990;-70
2023/01/08 08:22:12;;;;;;;23.17;15.67;;;;;;;0.61;92.08;95899.16;1787084;80;21030;-70
2023/01/08 08:24:39;;;;;;;14.60;9.57;;;;;;;0.59;92.48;95896.95;1787145;80;20959;-69
2023/01/08 08:27:06;;;;;;;26.03;20.03;;;;;;;0.70;93.35;95904.98;1787138;80;21580;-69
2023/01/08 08:29:33;;;;;;;19.63;11.47;;;;;;;0.72;92.98;95908.51;1787047;80;20964;-69
2023/01/08 08:31:59;;;;;;;14.93;9.13;;;;;;;0.81;93.40;95904.84;1754509;80;21023;-69
2023/01/08 08:34:26;;;;;;;11.20;7.07;;;;;;;0.88;93.00;95909.74;1787066;80;21484;-70
2023/01/08 08:36:52;;;;;;;23.90;13.13;;;;;;;0.92;93.21;95913.31;1787224;80;21011;-70
2023/01/08 08:39:19;;;;;;;21.63;11.90;;;;;;;0.97;93.02;95922.96;1787093;80;21109;-70
2023/01/08 08:41:46;;;;;;;19.50;11.40;;;;;;;1.08;93.33;95919.30;1787215;80;20966;-71
2023/01/08 08:44:12;;;;;;;13.67;9.00;;;;;;;1.11;92.79;95914.20;1787199;80;20991;-70
2023/01/08 08:46:39;;;;;;;20.00;11.53;;;;;;;1.11;92.48;95910.70;1787098;80;21512;-71
2023/01/08 08:49:06;;;;;;;18.83;10.23;;;;;;;1.16;92.77;95921.68;1787039;80;20967;-70
2023/01/08 08:51:32;;;;;;;8.53;6.10;;;;;;;1.24;92.77;95916.22;1787197;80;21015;-70
2023/01/08 08:53:59;;;;;;;7.40;5.10;;;;;;;1.28;92.77;95916.73;1787327;80;21047;-71
2023/01/08 08:56:28;;;;;;;9.43;5.87;;;;;;;1.36;92.88;95915.63;1787251;80;20968;-71
2023/01/08 08:58:54;;;;;;;9.03;6.33;;;;;;;1.37;92.42;95917.38;1787067;80;20968;-71
2023/01/08 09:01:21;;;;;;;8.87;5.90;;;;;;;1.45;92.76;95904.53;1787198;80;21069;-71
2023/01/08 09:03:48;;;;;;;9.83;5.93;;;;;;;1.50;92.42;95909.41;1787036;80;21014;-71
2023/01/08 09:06:15;;;;;;;9.27;5.43;;;;;;;1.55;92.38;95906.91;1786846;80;21018;-70
2023/01/08 09:08:42;;;;;;;9.97;5.80;;;;;;;1.59;92.44;95896.61;1787216;80;20963;-69
2023/01/08 09:11:08;;;;;;;9.30;6.37;;;;;;;1.66;92.55;95897.59;1787115;80;21079;-69
2023/01/08 09:13:38;;;;;;;8.37;5.90;;;;;;;1.78;92.87;95891.34;1787111;80;20991;-69
2023/01/08 09:16:05;;;;;;;11.60;8.30;;;;;;;1.86;92.56;95889.77;1787091;80;20991;-69
2023/01/08 09:18:32;;;;;;;10.03;6.10;;;;;;;1.78;91.07;95880.06;1787022;80;20979;-69
2023/01/08 09:21:04;;;;;;;9.13;6.50;;;;;;;1.81;91.45;95881.42;1787113;80;21074;-67
2023/01/08 09:23:31;;;;;;;12.00;7.27;;;;;;;1.83;91.42;95887.11;1787257;80;21018;-68
2023/01/08 09:26:00;;;;;;;9.80;6.60;;;;;;;1.87;91.73;95884.16;1786802;80;21062;-67
2023/01/08 09:28:27;;;;;;;10.33;6.90;;;;;;;1.97;92.01;95878.72;1787119;80;20991;-67
2023/01/08 09:30:54;;;;;;;14.57;9.83;;;;;;;2.09;92.41;95864.20;1786972;80;21007;-67
2023/01/08 09:33:20;;;;;;;11.27;7.43;;;;;;;2.13;91.06;95857.31;1786899;80;21509;-67
2023/01/08 09:35:47;;;;;;;9.20;6.03;;;;;;;2.15;91.29;95864.30;1786947;80;21011;-67
2023/01/08 09:38:14;;;;;;;12.33;8.03;;;;;;;2.21;91.50;95861.36;1787301;80;21011;-68
2023/01/08 09:40:57;;;;;;;13.73;9.00;;;;;;;2.20;91.00;95858.31;1786838;80;21141;-68
2023/01/08 09:43:25;;;;;;;;;;;;;;;2.32;92.05;95854.20;1782368;80;21028;-70
2023/01/08 09:45:55;;;;;;;11.40;7.73;;;;;;;2.45;92.06;95856.58;1786997;80;20096;-69
2023/01/08 09:48:28;;;;;;;14.00;8.60;;;;;;;2.48;90.84;95854.02;1787104;80;20991;-69
2023/01/08 09:50:55;;;;;;;10.07;6.83;;;;;;;2.43;90.72;95843.95;1787162;80;21011;-68
2023/01/08 09:53:23;;;;;;;8.67;5.97;;;;;;;2.44;91.23;95848.30;1787205;80;21034;-67
2023/01/08 09:55:59;;;;;;;8.63;6.47;;;;;;;2.46;91.14;95849.20;1787178;80;20960;-68
2023/01/08 09:58:40;;;;;;;16.83;9.30;;;;;;;2.49;90.94;95849.25;1787108;80;21409;-70
2023/01/08 10:01:10;;;;;;;34.77;19.33;;;;;;;2.57;91.27;95848.07;1787194;80;21014;-70
2023/01/08 10:03:50;;;;;;;13.57;7.87;;;;;;;2.58;90.58;95850.72;1787106;80;20982;-70
2023/01/08 10:06:17;;;;;;;10.87;7.07;;;;;;;2.61;90.88;95849.89;1787108;80;20998;-70
2023/01/08 10:08:45;;;;;;;11.80;7.00;;;;;;;2.57;90.48;95845.47;1787061;80;20986;-70
2023/01/08 10:11:14;;;;;;;7.37;5.43;;;;;;;2.58;90.58;95839.42;1787030;80;21019;-68
2023/01/08 10:13:45;;;;;;;9.73;6.20;;;;;;;2.59;90.37;95831.61;1786980;80;21030;-67
2023/01/08 10:18:36;;;;;;;9.40;6.70;;;;;;;2.82;90.91;95827.02;104538;1296;545000;-68
2023/01/08 10:21:04;;;;;;;8.70;6.10;;;;;;;2.89;91.26;95824.18;105973;1288;22551;-68
2023/01/08 10:23:32;;;;;;;7.50;5.30;;;;;;;2.89;90.52;95820.19;106012;1278;22569;-68
2023/01/08 10:26:02;;;;;;;7.80;4.60;;;;;;;2.87;90.37;95818.08;105947;1288;22948;-68
2023/01/08 10:28:35;;;;;;;9.80;5.80;;;;;;;2.87;90.61;95813.90;105821;1288;22556;-68
2023/01/08 10:31:08;;;;;;;8.40;6.00;;;;;;;2.87;90.89;95807.11;105486;1286;674727;-68
2023/01/08 10:33:43;;;;;;;9.40;6.30;;;;;;;2.91;91.33;95813.10;106268;1286;25411;-68
2023/01/08 10:36:22;;;;;;;9.60;6.00;;;;;;;2.95;91.30;95814.02;106287;1286;22549;-68
2023/01/08 10:38:55;;;;;;;7.30;5.00;;;;;;;3.01;91.32;95812.89;106336;1286;25512;-68
2023/01/08 10:41:23;;;;;;;;;;;;;;;3.00;91.01;95809.91;106326;1286;22648;-68
2023/01/08 10:44:01;;;;;;;8.00;5.20;;;;;;;2.97;91.03;95805.17;106290;1286;24385;-68
2023/01/08 10:46:30;;;;;;;7.50;5.50;;;;;;;2.97;91.07;95801.37;106299;1286;22549;-68
2023/01/08 10:49:01;;;;;;;7.80;5.20;;;;;;;3.05;91.31;95801.98;106232;1286;24669;-68
2023/01/08 10:51:31;;;;;;;7.80;4.70;;;;;;;3.12;91.41;95798.26;106007;1283;24387;-68
2023/01/08 10:54:22;;;;;;;7.30;4.90;;;;;;;3.17;91.34;95796.07;105908;1286;24259;-68
2023/01/08 10:56:50;;;;;;;6.40;4.40;;;;;;;3.16;91.05;95793.80;105958;1286;25356;-68
2023/01/08 10:59:20;;;;;;;6.90;4.70;;;;;;;3.12;90.79;95796.00;105978;1286;22532;-68
2023/01/08 11:01:51;;;;;;;7.10;4.40;;;;;;;3.12;90.77;95791.13;105933;1286;25350;-68
2023/01/08 11:04:32;;;;;;;8.10;5.00;;;;;;;3.11;90.74;95787.13;105826;1286;24212;-68
2023/01/08 11:07:05;;;;;;;6.70;4.10;;;;;;;3.16;91.00;95786.33;106251;1286;24377;-68
2023/01/08 11:09:40;;;;;;;6.70;5.30;;;;;;;3.19;90.77;95785.66;105999;1284;24268;-68
2023/01/08 11:12:27;;;;;;;6.70;4.80;;;;;;;3.19;90.81;95780.80;106184;1283;24371;-68
2023/01/08 11:14:56;;;;;;;7.40;4.50;;;;;;;3.20;90.79;95784.27;106223;1283;24215;-68
2023/01/08 11:17:25;;;;;;;7.30;4.90;;;;;;;3.17;90.63;95782.16;106167;1283;22542;-68
2023/01/08 11:19:53;;;;;;;8.40;5.10;;;;;;;3.15;90.56;95778.14;106171;1283;22522;-68
2023/01/08 11:22:24;;;;;;;7.60;4.80;;;;;;;3.13;90.44;95776.72;106115;1283;22535;-68
2023/01/08 11:24:53;;;;;;;7.20;5.00;;;;;;;3.16;90.79;95776.23;106217;1283;24372;-68
2023/01/08 11:27:33;;;;;;;6.90;4.20;;;;;;;3.20;90.81;95774.90;106188;1283;24196;-68
2023/01/08 11:30:06;;;;;;;8.00;4.90;;;;;;;3.22;90.49;95777.17;106194;1283;25323;-70
2023/01/08 11:32:53;;;;;;;6.70;4.40;;;;;;;3.22;90.57;95774.92;106147;1284;25406;-73
2023/01/08 11:35:28;;;;;;;7.80;4.70;;;;;;;3.19;89.92;95779.58;106153;1284;22529;-70
2023/01/08 11:38:00;;;;;;;8.20;5.10;;;;;;;3.13;89.80;95779.67;106168;1284;22555;-70
2023/01/08 11:40:47;;;;;;;6.00;4.40;;;;;;;3.10;90.17;95779.98;106199;1272;25265;-70
2023/01/08 11:43:21;;;;;;;8.20;5.30;;;;;;;3.11;90.42;95778.27;106168;1283;22552;-70
2023/01/08 11:46:12;;;;;;;9.00;5.30;;;;;;;3.18;90.74;95777.31;106192;1284;25504;-71
2023/01/08 11:49:03;;;;;;;8.10;5.50;;;;;;;3.22;90.55;95776.84;106285;1284;24268;-70